Time;durP1;ratioP1;P1;durP2;ratioP2;P2;SDS_P1;SDS_P2;PMS_P1;PMS_P2;Temp;Humidity;BMP_temperature;BMP_pressure;BME280_temperature;BME280_humidity;BME280_pressure;Samples;Min_cycle;Max_cycle;Signal;HPM_P1;HPM_P2
2023/03/18 00:00:48;;;;;;;11.15;2.47;;;;;;;19.39;100.00;100420.91;5007238;28;20057;-77
2023/03/18 00:03:14;;;;;;;16.00;4.15;;;;;;;19.13;100.00;100414.75;5005507;28;20056;-74
2023/03/18 00:05:41;;;;;;;7.43;2.65;;;;;;;18.44;100.00;100410.69;5005246;28;20057;-74
2023/03/18 00:08:08;;;;;;;10.85;3.03;;;;;;;18.10;100.00;100410.75;5004718;28;20039;-77
2023/03/18 00:10:34;;;;;;;5.18;1.90;;;;;;;18.35;100.00;100421.03;5003792;28;20057;-74
2023/03/18 00:13:03;;;;;;;13.73;3.28;;;;;;;18.83;100.00;100428.81;5005451;28;20064;-73
2023/03/18 00:15:31;;;;;;;14.73;3.47;;;;;;;15.18;100.00;100406.91;5004507;28;20085;-73
2023/03/18 00:17:58;;;;;;;10.63;3.03;;;;;;;14.58;100.00;100405.53;5005201;28;20058;-76
2023/03/18 00:20:37;;;;;;;11.73;2.85;;;;;;;14.61;100.00;100407.47;5003191;28;20060;-74
2023/03/18 00:23:07;;;;;;;13.10;3.38;;;;;;;14.62;100.00;100403.47;5004934;28;20133;-75
2023/03/18 00:25:34;;;;;;;10.52;3.38;;;;;;;14.31;100.00;100402.16;5004069;28;20054;-75
2023/03/18 00:28:03;;;;;;;12.63;3.45;;;;;;;14.34;100.00;100398.53;5006042;28;20061;-73
2023/03/18 00:30:30;;;;;;;10.65;3.20;;;;;;;16.81;100.00;100410.34;5004796;28;20184;-74
2023/03/18 00:32:57;;;;;;;17.10;3.28;;;;;;;14.36;100.00;100407.25;5001592;28;20056;-77
2023/03/18 00:35:29;;;;;;;7.70;2.95;;;;;;;14.09;100.00;100412.16;5006404;28;20046;-78
2023/03/18 00:37:57;;;;;;;17.60;4.50;;;;;;;14.05;100.00;100427.34;4999962;28;20045;-73
2023/03/18 00:40:41;;;;;;;11.90;3.70;;;;;;;14.05;100.00;100432.91;5005278;28;20080;-74
2023/03/18 00:43:09;;;;;;;11.13;3.40;;;;;;;14.04;100.00;100420.97;5005315;28;20045;-75
2023/03/18 00:45:37;;;;;;;17.05;3.58;;;;;;;14.05;100.00;100430.13;5010536;28;20041;-75
2023/03/18 00:48:05;;;;;;;12.48;3.58;;;;;;;14.01;100.00;100434.97;5004524;28;20050;-76
2023/03/18 00:50:33;;;;;;;8.95;3.22;;;;;;;13.94;100.00;100435.88;5006379;28;20054;-74
2023/03/18 00:53:00;;;;;;;10.20;3.35;;;;;;;13.98;100.00;100439.41;5007491;28;20054;-75
2023/03/18 00:55:27;;;;;;;10.30;3.35;;;;;;;14.00;100.00;100436.94;5008043;28;20060;-73
2023/03/18 00:57:54;;;;;;;8.75;3.25;;;;;;;14.03;100.00;100436.09;5008506;28;20519;-74
2023/03/18 01:00:20;;;;;;;11.77;3.45;;;;;;;13.99;100.00;100432.63;5007970;28;20050;-74
2023/03/18 01:02:48;;;;;;;13.40;3.42;;;;;;;14.00;100.00;100431.38;5006647;28;20057;-74
2023/03/18 01:05:15;;;;;;;11.25;3.10;;;;;;;13.95;100.00;100426.34;5007796;28;20050;-76
2023/03/18 01:07:42;;;;;;;11.80;3.55;;;;;;;13.96;100.00;100425.13;5008045;28;20054;-75
2023/03/18 01:10:11;;;;;;;14.10;3.05;;;;;;;13.94;100.00;100418.41;5000215;28;20145;-73
2023/03/18 01:12:39;;;;;;;11.60;3.40;;;;;;;13.94;100.00;100416.41;5000126;28;20065;-74
2023/03/18 01:15:09;;;;;;;7.75;2.65;;;;;;;13.87;100.00;100424.13;5007374;28;20511;-74
2023/03/18 01:17:36;;;;;;;9.90;3.90;;;;;;;13.81;100.00;100423.03;5007820;28;20050;-74
2023/03/18 01:20:03;;;;;;;14.02;2.92;;;;;;;13.82;100.00;100430.94;5007412;28;20042;-73
2023/03/18 01:22:30;;;;;;;12.32;4.22;;;;;;;13.91;100.00;100414.47;5013737;28;20046;-77
2023/03/18 01:24:57;;;;;;;10.48;3.20;;;;;;;13.86;100.00;100405.84;5007806;28;20045;-73
2023/03/18 01:27:24;;;;;;;10.63;3.22;;;;;;;13.79;100.00;100398.44;5006365;28;20088;-73
2023/03/18 01:29:51;;;;;;;10.93;3.95;;;;;;;13.81;100.00;100409.94;5006257;28;20122;-73
2023/03/18 01:32:18;;;;;;;7.50;2.88;;;;;;;13.78;100.00;100421.09;5007043;28;20064;-76
2023/03/18 01:34:45;;;;;;;10.32;3.20;;;;;;;13.73;100.00;100424.38;5007534;28;20419;-75
2023/03/18 01:37:11;;;;;;;9.52;3.38;;;;;;;13.77;100.00;100431.44;5008792;28;20062;-73
2023/03/18 01:39:38;;;;;;;10.77;3.40;;;;;;;13.74;100.00;100421.16;5006538;28;20520;-74
2023/03/18 01:42:05;;;;;;;6.97;2.70;;;;;;;13.71;100.00;100422.03;5006240;28;20140;-77
2023/03/18 01:44:31;;;;;;;11.18;3.08;;;;;;;13.69;100.00;100432.00;5004825;28;20054;-73
2023/03/18 01:46:58;;;;;;;13.23;3.97;;;;;;;13.73;100.00;100421.59;5006194;28;20054;-74
2023/03/18 01:49:38;;;;;;;10.18;3.20;;;;;;;13.72;100.00;100422.81;5005580;28;20049;-74
2023/03/18 01:52:11;;;;;;;13.65;3.95;;;;;;;13.71;100.00;100422.03;5006720;28;20140;-75
2023/03/18 01:54:46;;;;;;;11.50;3.58;;;;;;;13.70;100.00;100420.44;5006493;28;20053;-73
2023/03/18 01:57:16;;;;;;;10.23;2.83;;;;;;;13.63;100.00;100420.56;5006904;28;20046;-74
2023/03/18 01:59:46;;;;;;;12.25;3.33;;;;;;;13.68;100.00;100430.41;5014434;28;20045;-71
2023/03/18 02:02:15;;;;;;;12.23;3.85;;;;;;;13.61;100.00;100428.56;5011672;28;20427;-75
2023/03/18 02:04:46;;;;;;;11.27;3.60;;;;;;;13.70;100.00;100430.78;5006464;28;20057;-74
2023/03/18 02:07:41;;;;;;;10.07;3.80;;;;;;;13.65;100.00;100440.41;5006923;28;20519;-74
2023/03/18 02:10:12;;;;;;;16.77;4.10;;;;;;;13.71;100.00;100444.28;5003349;28;20423;-76
2023/03/18 02:12:44;;;;;;;12.15;3.60;;;;;;;13.68;100.00;100441.53;5006515;28;20784;-74
2023/03/18 02:15:15;;;;;;;11.30;4.20;;;;;;;13.72;100.00;100443.06;5005202;28;20078;-72
2023/03/18 02:17:46;;;;;;;15.93;3.65;;;;;;;13.78;100.00;100452.50;5007225;28;20053;-75
2023/03/18 02:21:07;;;;;;;8.85;3.22;;;;;;;13.73;100.00;100452.97;5006754;28;20046;-74
2023/03/18 02:23:40;;;;;;;13.25;3.60;;;;;;;13.83;100.00;100446.41;5002938;28;20050;-72
2023/03/18 02:26:30;;;;;;;16.05;4.40;;;;;;;13.87;100.00;100433.22;5015081;28;20137;-74
2023/03/18 02:29:03;;;;;;;15.85;4.47;;;;;;;13.89;100.00;100433.59;5006812;28;20049;-74
2023/03/18 02:31:31;;;;;;;12.20;4.38;;;;;;;13.94;100.00;100437.88;5006478;28;20061;-73
2023/03/18 02:33:58;;;;;;;11.52;3.22;;;;;;;13.88;100.00;100439.59;5006294;28;20052;-71
2023/03/18 02:36:28;;;;;;;16.90;4.78;;;;;;;14.02;100.00;100431.75;5008105;28;20046;-74
2023/03/18 02:38:56;;;;;;;12.88;4.20;;;;;;;14.06;100.00;100431.69;5005188;28;20056;-72
2023/03/18 02:41:26;;;;;;;13.38;4.15;;;;;;;14.02;100.00;100436.53;5006427;28;20056;-74
2023/03/18 02:43:53;;;;;;;14.05;3.67;;;;;;;14.05;100.00;100442.03;5006071;28;20060;-74
2023/03/18 02:46:25;;;;;;;18.23;4.10;;;;;;;14.02;100.00;100433.75;5006611;28;20069;-73
2023/03/18 02:48:52;;;;;;;17.60;5.18;;;;;;;13.99;100.00;100445.72;5008694;28;20096;-74
2023/03/18 02:51:19;;;;;;;15.57;4.50;;;;;;;13.97;100.00;100443.38;5006268;28;20057;-73
2023/03/18 02:53:47;;;;;;;12.32;4.07;;;;;;;13.97;100.00;100448.94;5006154;28;20057;-74
2023/03/18 02:56:14;;;;;;;12.13;4.38;;;;;;;13.93;100.00;100431.53;5006570;28;20141;-74
2023/03/18 02:58:42;;;;;;;8.77;3.47;;;;;;;13.96;100.00;100429.88;5007697;28;20427;-74
2023/03/18 03:01:09;;;;;;;12.38;5.50;;;;;;;13.83;100.00;100426.94;5006838;28;20521;-76
2023/03/18 03:03:36;;;;;;;11.30;3.60;;;;;;;13.85;100.00;100441.22;5006016;28;20053;-76
2023/03/18 03:06:03;;;;;;;11.43;3.90;;;;;;;13.81;100.00;100432.16;5007715;28;20049;-75
2023/03/18 03:08:30;;;;;;;10.93;4.47;;;;;;;13.80;100.00;100441.72;5005974;28;20057;-74
2023/03/18 03:10:56;;;;;;;12.32;4.20;;;;;;;13.76;100.00;100449.34;5006151;28;20143;-74
2023/03/18 03:13:23;;;;;;;11.05;4.20;;;;;;;13.72;100.00;100440.28;5006172;28;20046;-74
2023/03/18 03:15:50;;;;;;;11.70;3.80;;;;;;;13.64;100.00;100444.41;5005479;28;20053;-75
2023/03/18 03:18:17;;;;;;;15.50;3.55;;;;;;;13.58;100.00;100448.88;5008909;28;20045;-73
2023/03/18 03:20:44;;;;;;;13.23;3.88;;;;;;;13.52;100.00;100453.34;5010272;28;20077;-74
2023/03/18 03:23:14;;;;;;;15.48;4.25;;;;;;;13.48;100.00;100458.19;5008738;28;21851;-74
2023/03/18 03:25:41;;;;;;;11.90;3.50;;;;;;;13.44;100.00;100468.56;5008610;28;20054;-75
2023/03/18 03:28:10;;;;;;;13.52;4.10;;;;;;;13.49;100.00;100459.75;5011743;28;20630;-77
2023/03/18 03:30:38;;;;;;;9.65;3.85;;;;;;;13.49;100.00;100458.94;5004180;28;20480;-75
2023/03/18 03:33:05;;;;;;;10.15;4.30;;;;;;;13.50;100.00;100464.09;5009163;28;20070;-73
2023/03/18 03:35:32;;;;;;;12.85;3.83;;;;;;;13.54;100.00;100462.06;5011344;28;20057;-75
2023/03/18 03:37:58;;;;;;;13.75;4.00;;;;;;;13.50;100.00;100469.63;5009193;28;20061;-72
2023/03/18 03:40:26;;;;;;;12.48;4.10;;;;;;;13.51;100.00;100468.47;5009118;28;20046;-74
2023/03/18 03:42:53;;;;;;;11.05;4.25;;;;;;;13.58;100.00;100468.34;5007815;28;20058;-72
2023/03/18 03:45:20;;;;;;;10.23;4.18;;;;;;;13.57;100.00;100458.41;5009320;28;20053;-71
2023/03/18 03:47:47;;;;;;;14.38;5.03;;;;;;;13.61;100.00;100461.13;5011289;28;20054;-74
2023/03/18 03:50:15;;;;;;;11.60;4.03;;;;;;;13.54;100.00;100462.06;5007998;28;20050;-73
2023/03/18 03:52:42;;;;;;;14.95;3.88;;;;;;;13.49;100.00;100464.50;5009537;28;20054;-74
2023/03/18 03:55:11;;;;;;;10.70;3.85;;;;;;;13.46;100.00;100463.38;5009448;28;20064;-75
2023/03/18 03:57:38;;;;;;;13.43;4.30;;;;;;;13.50;100.00;100466.09;5009980;28;20059;-74
2023/03/18 04:00:07;;;;;;;13.20;4.05;;;;;;;13.50;100.00;100468.88;5006482;28;20727;-74
2023/03/18 04:02:33;;;;;;;13.23;4.03;;;;;;;13.45;100.00;100472.13;5000513;28;20049;-74
2023/03/18 04:05:01;;;;;;;13.35;4.88;;;;;;;13.42;100.00;100468.19;5009930;28;20132;-76
2023/03/18 04:07:28;;;;;;;12.63;4.28;;;;;;;13.43;100.00;100469.75;5009009;28;20053;-74
2023/03/18 04:09:54;;;;;;;11.63;4.10;;;;;;;13.46;100.00;100476.50;5008458;28;20103;-74
2023/03/18 04:12:21;;;;;;;9.95;4.28;;;;;;;13.46;100.00;100470.94;5009093;28;20073;-75
2023/03/18 04:14:48;;;;;;;12.63;3.92;;;;;;;13.42;100.00;100475.75;5008531;28;20045;-76
2023/03/18 04:17:17;;;;;;;8.57;3.35;;;;;;;13.48;100.00;100482.41;5008224;28;20061;-75
2023/03/18 04:19:44;;;;;;;10.13;3.63;;;;;;;13.47;100.00;100489.16;5010831;28;20388;-75
2023/03/18 04:22:10;;;;;;;5.68;1.98;;;;;;;13.51;100.00;100493.47;5008250;28;20045;-76
2023/03/18 04:24:37;;;;;;;14.85;4.60;;;;;;;13.63;100.00;100492.84;5008744;28;20046;-75
2023/03/18 04:27:04;;;;;;;16.25;4.47;;;;;;;13.65;100.00;100489.66;5007475;28;20049;-75
2023/03/18 04:29:31;;;;;;;11.10;3.50;;;;;;;13.61;100.00;100498.06;5007212;28;20057;-75
2023/03/18 04:31:58;;;;;;;13.77;4.43;;;;;;;13.66;100.00;100497.56;5008154;28;20046;-75
2023/03/18 04:34:25;;;;;;;13.70;4.55;;;;;;;13.84;100.00;100506.38;5008513;28;20568;-74
2023/03/18 04:36:51;;;;;;;7.55;2.17;;;;;;;13.82;100.00;100511.59;5008147;28;20064;-74
2023/03/18 04:39:18;;;;;;;14.15;4.68;;;;;;;13.79;100.00;100504.09;5008355;28;20037;-76
2023/03/18 04:41:45;;;;;;;13.02;4.38;;;;;;;13.77;100.00;100508.53;5007790;28;20060;-75
2023/03/18 04:44:12;;;;;;;12.70;4.82;;;;;;;13.79;100.00;100508.88;5008049;28;20693;-74
2023/03/18 04:46:39;;;;;;;10.75;4.43;;;;;;;13.85;100.00;100507.19;5007393;28;20053;-76
2023/03/18 04:49:05;;;;;;;12.65;4.22;;;;;;;13.80;100.00;100507.69;5008241;28;20749;-75
2023/03/18 04:51:32;;;;;;;13.75;4.88;;;;;;;13.93;100.00;100517.75;5008009;28;20060;-71
2023/03/18 04:53:58;;;;;;;14.68;5.22;;;;;;;13.95;100.00;100514.53;5008083;28;20049;-76
2023/03/18 04:56:25;;;;;;;12.38;4.75;;;;;;;13.69;100.00;100518.19;5006082;28;20504;-73
2023/03/18 04:58:51;;;;;;;11.68;4.20;;;;;;;13.86;100.00;100514.31;5008050;28;20066;-72
2023/03/18 05:01:18;;;;;;;11.07;4.57;;;;;;;13.65;100.00;100523.81;5007868;28;20046;-74
2023/03/18 05:03:44;;;;;;;11.50;3.33;;;;;;;13.60;100.00;100515.94;5010284;28;20050;-76
2023/03/18 05:06:24;;;;;;;13.50;4.70;;;;;;;13.66;100.00;100519.03;5008027;28;20058;-74
2023/03/18 05:08:50;;;;;;;11.68;4.60;;;;;;;13.72;100.00;100517.34;5007551;28;20597;-72
2023/03/18 05:11:18;;;;;;;13.80;4.88;;;;;;;14.22;100.00;100520.81;5007337;28;20512;-76
2023/03/18 05:13:45;;;;;;;10.50;4.50;;;;;;;14.23;100.00;100514.84;5007366;28;20054;-76
2023/03/18 05:16:12;;;;;;;13.82;5.25;;;;;;;14.09;100.00;100520.66;5007853;28;20054;-73
2023/03/18 05:18:40;;;;;;;11.15;4.63;;;;;;;13.87;100.00;100530.56;5010421;28;20455;-75
2023/03/18 05:21:08;;;;;;;16.73;5.45;;;;;;;14.14;100.00;100528.50;5008922;28;20156;-74
2023/03/18 05:23:36;;;;;;;15.13;5.32;;;;;;;14.28;100.00;100533.81;5006998;28;20053;-74
2023/03/18 05:26:04;;;;;;;12.48;5.13;;;;;;;13.89;100.00;100522.59;5007545;28;20550;-76
2023/03/18 05:28:32;;;;;;;15.30;5.32;;;;;;;13.90;100.00;100532.50;5007501;28;20057;-74
2023/03/18 05:30:59;;;;;;;17.15;5.55;;;;;;;13.83;100.00;100527.06;5006697;28;20052;-76
2023/03/18 05:33:26;;;;;;;13.98;5.90;;;;;;;14.01;100.00;100529.53;5006680;28;20053;-75
2023/03/18 05:35:52;;;;;;;17.55;5.95;;;;;;;14.18;100.00;100534.00;5012558;28;20601;-74
2023/03/18 05:38:19;;;;;;;15.65;5.38;;;;;;;13.82;100.00;100533.84;5007555;28;20088;-75
2023/03/18 05:40:45;;;;;;;16.77;5.88;;;;;;;13.79;100.00;100526.34;5006791;28;20782;-75
2023/03/18 05:43:12;;;;;;;20.05;5.72;;;;;;;13.81;100.00;100532.28;5006505;28;20054;-75
2023/03/18 05:45:38;;;;;;;16.73;6.28;;;;;;;13.85;100.00;100541.34;5007673;28;20068;-77
2023/03/18 05:48:07;;;;;;;14.65;6.82;;;;;;;13.85;100.00;100541.34;5005539;28;20529;-75
2023/03/18 05:50:36;;;;;;;15.27;5.85;;;;;;;13.85;100.00;100540.56;5000432;28;20049;-73
2023/03/18 05:53:04;;;;;;;15.45;5.85;;;;;;;13.85;100.00;100543.34;5006814;28;20054;-76
2023/03/18 05:55:31;;;;;;;16.48;6.68;;;;;;;13.89;100.00;100542.06;5007128;28;20529;-77
2023/03/18 05:57:59;;;;;;;18.27;6.50;;;;;;;13.87;100.00;100541.69;5001753;28;20081;-76
2023/03/18 06:00:30;;;;;;;16.17;5.57;;;;;;;13.81;100.00;100551.75;5006304;28;20839;-75
2023/03/18 06:02:58;;;;;;;14.48;6.03;;;;;;;14.29;100.00;100556.88;5004575;28;20111;-76
2023/03/18 06:05:25;;;;;;;12.52;4.85;;;;;;;14.11;100.00;100561.94;5015103;28;20089;-75
2023/03/18 06:07:53;;;;;;;15.20;5.90;;;;;;;13.96;100.00;100557.84;5007065;28;20053;-74
2023/03/18 06:10:23;;;;;;;16.42;5.85;;;;;;;14.40;100.00;100563.81;5006338;28;20078;-74
2023/03/18 06:12:51;;;;;;;16.52;6.00;;;;;;;13.98;100.00;100561.00;5015791;28;20153;-75
2023/03/18 06:15:18;;;;;;;12.50;5.30;;;;;;;14.18;100.00;100557.03;5007120;28;20052;-74
2023/03/18 06:17:44;;;;;;;13.85;5.10;;;;;;;14.10;100.00;100568.72;5005342;28;20050;-74
2023/03/18 06:20:14;;;;;;;9.50;3.85;;;;;;;13.98;100.00;100570.13;5007850;28;20045;-76
2023/03/18 06:22:42;;;;;;;14.23;5.88;;;;;;;14.21;100.00;100566.53;5006775;28;20153;-76
2023/03/18 06:25:09;;;;;;;18.90;6.53;;;;;;;14.40;100.00;100574.94;5006740;28;20107;-75
2023/03/18 06:27:36;;;;;;;4.75;1.85;;;;;;;14.22;100.00;100568.94;5005671;28;20046;-76
2023/03/18 06:30:04;;;;;;;19.52;5.40;;;;;;;14.45;100.00;100577.22;5007193;28;20049;-74
2023/03/18 06:32:32;;;;;;;3.65;1.92;;;;;;;14.45;100.00;100582.78;5004539;28;20483;-75
2023/03/18 06:34:59;;;;;;;15.57;5.28;;;;;;;14.69;100.00;100581.56;5008705;28;20064;-77
2023/03/18 06:37:25;;;;;;;7.10;2.92;;;;;;;14.88;100.00;100579.94;5006780;28;20113;-75
2023/03/18 06:39:52;;;;;;;11.30;5.15;;;;;;;14.89;100.00;100581.53;5006763;28;20064;-75
2023/03/18 06:42:19;;;;;;;10.77;4.00;;;;;;;14.83;100.00;100592.41;5006760;28;20052;-74
2023/03/18 06:44:49;;;;;;;14.88;5.85;;;;;;;14.94;100.00;100589.38;5006561;28;20774;-76
2023/03/18 06:47:23;;;;;;;13.13;4.45;;;;;;;14.84;100.00;100593.16;5006113;28;20608;-76
2023/03/18 06:49:50;;;;;;;10.52;5.10;;;;;;;14.84;100.00;100599.53;5005225;28;20061;-75
2023/03/18 06:52:17;;;;;;;6.57;2.88;;;;;;;14.31;100.00;100605.31;5007940;28;20054;-74
2023/03/18 06:54:44;;;;;;;9.18;3.13;;;;;;;14.22;100.00;100607.06;5011295;28;20159;-75
2023/03/18 06:57:12;;;;;;;14.50;6.47;;;;;;;14.23;100.00;100603.09;5009578;28;20609;-75
2023/03/18 06:59:39;;;;;;;14.63;5.32;;;;;;;14.28;100.00;100605.41;5010350;28;20709;-73
2023/03/18 07:02:07;;;;;;;0.63;0.63;;;;;;;14.25;100.00;100604.25;5011242;28;20061;-78
2023/03/18 07:04:34;;;;;;;15.80;5.45;;;;;;;14.30;100.00;100606.53;5008369;28;20064;-72
2023/03/18 07:07:01;;;;;;;7.10;3.17;;;;;;;14.29;100.00;100615.31;5008259;28;20054;-73
2023/03/18 07:09:27;;;;;;;16.75;6.63;;;;;;;14.39;100.00;100614.34;5009294;28;20042;-77
2023/03/18 07:11:54;;;;;;;3.05;1.38;;;;;;;14.41;100.00;100604.34;5008725;28;20072;-75
2023/03/18 07:14:22;;;;;;;9.38;2.97;;;;;;;14.38;100.00;100618.34;5010098;28;20450;-73
2023/03/18 07:16:48;;;;;;;10.75;2.55;;;;;;;14.46;100.00;100628.91;5009421;28;20056;-75
2023/03/18 07:19:18;;;;;;;16.83;6.43;;;;;;;14.58;100.00;100611.56;5008454;28;20113;-73
2023/03/18 07:21:45;;;;;;;3.88;1.75;;;;;;;14.44;100.00;100622.97;5009693;28;20057;-76
2023/03/18 07:24:13;;;;;;;6.28;3.05;;;;;;;14.46;100.00;100633.69;5007437;28;20056;-73
2023/03/18 07:26:40;;;;;;;4.50;2.15;;;;;;;14.47;100.00;100632.47;5009450;28;20077;-74
2023/03/18 07:29:07;;;;;;;17.02;6.70;;;;;;;14.56;100.00;100627.94;5008412;28;20136;-74
2023/03/18 07:31:33;;;;;;;18.55;7.70;;;;;;;14.64;100.00;100634.16;5006988;28;20419;-74
2023/03/18 07:34:00;;;;;;;5.80;2.85;;;;;;;14.51;100.00;100627.66;5007464;28;20077;-74
2023/03/18 07:36:27;;;;;;;17.23;6.72;;;;;;;14.61;100.00;100635.00;5001597;28;20136;-74
2023/03/18 07:38:53;;;;;;;16.85;6.93;;;;;;;14.69;100.00;100642.03;5008547;28;20064;-76
2023/03/18 07:41:20;;;;;;;11.52;5.05;;;;;;;14.64;100.00;100637.72;5006926;28;20137;-72
2023/03/18 07:43:47;;;;;;;18.63;7.40;;;;;;;14.82;100.00;100640.94;5005396;28;20050;-75
2023/03/18 07:46:13;;;;;;;8.43;3.28;;;;;;;14.72;100.00;100643.97;5006895;28;20474;-75
2023/03/18 07:48:40;;;;;;;9.38;3.80;;;;;;;14.75;100.00;100643.88;5008738;28;20046;-75
2023/03/18 07:51:07;;;;;;;10.35;4.18;;;;;;;14.85;100.00;100639.31;5008749;28;20053;-73
2023/03/18 07:53:34;;;;;;;10.23;4.15;;;;;;;14.93;100.00;100647.13;5005553;28;20770;-71
2023/03/18 07:56:02;;;;;;;19.45;7.03;;;;;;;14.98;100.00;100649.38;5008283;28;20050;-72
2023/03/18 07:58:29;;;;;;;7.72;2.72;;;;;;;14.99;100.00;100667.66;5008516;28;20131;-70
2023/03/18 08:00:56;;;;;;;12.75;4.63;;;;;;;15.02;100.00;100655.66;5008343;28;20128;-69
2023/03/18 08:03:22;;;;;;;12.27;4.03;;;;;;;15.07;100.00;100657.19;5007203;28;20056;-71
2023/03/18 08:05:50;;;;;;;8.73;3.58;;;;;;;15.14;100.00;100665.38;5006333;28;20050;-71
2023/03/18 08:08:16;;;;;;;9.70;4.30;;;;;;;15.13;100.00;100659.00;5007537;28;20050;-71
2023/03/18 08:10:43;;;;;;;10.13;4.10;;;;;;;15.07;100.00;100657.97;5007601;28;20069;-70
2023/03/18 08:13:09;;;;;;;12.88;4.57;;;;;;;15.01;100.00;100661.66;5007714;28;20139;-71
2023/03/18 08:15:36;;;;;;;14.80;5.20;;;;;;;15.03;100.00;100662.84;5009113;28;20056;-72
2023/03/18 08:18:02;;;;;;;8.35;3.08;;;;;;;15.13;100.00;100664.59;5014012;28;20064;-71
2023/03/18 08:20:29;;;;;;;9.52;3.35;;;;;;;15.25;100.00;100663.16;5009810;28;20061;-73
2023/03/18 08:22:56;;;;;;;9.75;3.95;;;;;;;15.22;100.00;100653.66;5014215;28;20049;-69
2023/03/18 08:25:22;;;;;;;9.77;4.05;;;;;;;15.37;100.00;100670.91;5009897;28;20045;-73
2023/03/18 08:27:51;;;;;;;13.38;3.78;;;;;;;15.41;100.00;100671.63;5008833;28;20396;-70
2023/03/18 08:30:18;;;;;;;6.72;3.60;;;;;;;15.40;100.00;100675.63;5008180;28;20074;-73
2023/03/18 08:32:45;;;;;;;8.20;2.58;;;;;;;15.49;100.00;100690.56;5001868;28;20050;-71
2023/03/18 08:35:12;;;;;;;15.45;5.35;;;;;;;15.64;100.00;100674.31;5008674;28;20046;-73
2023/03/18 08:37:39;;;;;;;10.57;2.58;;;;;;;15.73;100.00;100682.88;5007208;28;20060;-69
2023/03/18 08:40:05;;;;;;;7.93;1.73;;;;;;;15.71;100.00;100682.50;5008774;28;20049;-70
2023/03/18 08:42:32;;;;;;;7.28;2.92;;;;;;;15.69;100.00;100690.50;5008651;28;20050;-70
2023/03/18 08:44:58;;;;;;;9.00;2.97;;;;;;;15.69;100.00;100692.53;5007446;28;20054;-70
2023/03/18 08:47:26;;;;;;;9.55;3.25;;;;;;;15.73;100.00;100696.81;5009257;28;20062;-72
2023/03/18 08:49:52;;;;;;;11.75;5.80;;;;;;;16.02;100.00;100688.56;5006915;28;20136;-70
2023/03/18 08:52:19;;;;;;;4.38;1.77;;;;;;;15.94;100.00;100687.16;5007467;28;20057;-68
2023/03/18 08:54:46;;;;;;;7.75;3.30;;;;;;;16.02;100.00;100702.50;5007478;28;20064;-72
2023/03/18 08:57:13;;;;;;;11.85;5.15;;;;;;;16.21;100.00;100690.50;5008439;28;20077;-68
2023/03/18 08:59:39;;;;;;;11.05;5.47;;;;;;;16.12;100.00;100705.06;5004198;28;20050;-71
2023/03/18 09:02:07;;;;;;;10.73;3.55;;;;;;;16.19;100.00;100702.09;5004543;28;20050;-74
2023/03/18 09:04:33;;;;;;;15.38;5.95;;;;;;;16.44;100.00;100696.69;5011103;28;20042;-71
2023/03/18 09:07:00;;;;;;;11.57;3.17;;;;;;;16.29;100.00;100698.25;5007749;28;20049;-73
2023/03/18 09:09:27;;;;;;;10.45;3.90;;;;;;;16.41;100.00;100691.19;5006476;28;20076;-71
2023/03/18 09:12:10;;;;;;;11.25;4.53;;;;;;;16.52;100.00;100698.09;5006839;28;20145;-75
2023/03/18 09:14:37;;;;;;;6.35;2.58;;;;;;;16.43;100.00;100703.53;5005155;28;20046;-71
2023/03/18 09:17:05;;;;;;;4.68;2.20;;;;;;;16.46;100.00;100696.25;5006563;28;20054;-73
2023/03/18 09:19:31;;;;;;;9.32;4.30;;;;;;;16.46;100.00;100699.06;5006347;28;20046;-73
2023/03/18 09:21:58;;;;;;;3.90;2.20;;;;;;;16.36;100.00;100697.28;5007531;28;20492;-75
2023/03/18 09:24:24;;;;;;;10.55;4.30;;;;;;;16.52;100.00;100700.09;5007864;28;20054;-74
2023/03/18 09:26:51;;;;;;;8.45;3.97;;;;;;;16.57;100.00;100703.16;5008163;28;20065;-75
2023/03/18 09:29:17;;;;;;;4.18;2.08;;;;;;;16.38;100.00;100706.81;5008074;28;20050;-70
2023/03/18 09:31:44;;;;;;;8.75;3.42;;;;;;;16.38;100.00;100700.44;5021682;28;20050;-73
2023/03/18 09:34:12;;;;;;;5.55;2.67;;;;;;;16.38;100.00;100706.03;5008462;28;20057;-73
2023/03/18 09:36:39;;;;;;;11.80;3.63;;;;;;;16.48;100.00;100705.81;5008633;28;20492;-74
2023/03/18 09:39:07;;;;;;;6.47;2.55;;;;;;;16.53;100.00;100707.25;5005542;28;20054;-73
2023/03/18 09:41:55;;;;;;;5.82;2.00;;;;;;;16.49;100.00;100696.19;5012364;28;20180;-69
2023/03/18 09:44:26;;;;;;;7.63;2.85;;;;;;;16.70;100.00;100714.41;5007415;28;20065;-71
2023/03/18 09:47:08;;;;;;;8.38;3.53;;;;;;;16.87;100.00;100713.94;5005468;28;20054;-71
2023/03/18 09:49:47;;;;;;;3.78;1.83;;;;;;;16.93;100.00;100708.59;5007615;28;20311;-71
2023/03/18 09:52:34;;;;;;;9.80;2.85;;;;;;;16.83;100.00;100710.47;5006534;28;20045;-73
2023/03/18 09:55:11;;;;;;;7.22;2.42;;;;;;;16.92;100.00;100713.41;5002517;28;20069;-73
2023/03/18 09:57:41;;;;;;;6.20;2.63;;;;;;;16.86;100.00;100706.00;4996408;28;20850;-71
2023/03/18 10:00:17;;;;;;;7.90;3.25;;;;;;;16.95;100.00;100717.34;5004811;28;20101;-71
2023/03/18 10:02:48;;;;;;;8.82;3.38;;;;;;;17.05;100.00;100713.47;4996105;28;20080;-75
2023/03/18 10:05:22;;;;;;;4.78;1.55;;;;;;;17.04;100.00;100709.09;5019297;28;20180;-70
2023/03/18 10:07:53;;;;;;;6.07;2.83;;;;;;;17.30;100.00;100713.53;5003317;28;20058;-73
2023/03/18 10:10:27;;;;;;;8.48;3.10;;;;;;;17.44;100.00;100716.75;5004659;28;20081;-71
2023/03/18 10:13:07;;;;;;;7.40;2.95;;;;;;;17.78;100.00;100719.72;5004813;28;21996;-72
2023/03/18 10:15:40;;;;;;;14.80;3.75;;;;;;;18.06;100.00;100722.88;5006280;28;20059;-71
2023/03/18 10:18:17;;;;;;;4.65;2.28;;;;;;;18.06;100.00;100720.06;5001410;28;20049;-71
2023/03/18 10:21:15;;;;;;;2.20;1.75;;;;;;;17.90;100.00;100721.75;5003496;28;20503;-72
2023/03/18 10:23:48;;;;;;;5.97;2.35;;;;;;;18.18;100.00;100736.06;5004899;28;20050;-71
2023/03/18 10:26:26;;;;;;;5.43;2.35;;;;;;;18.19;100.00;100724.44;4999714;28;20049;-74
2023/03/18 10:29:07;;;;;;;6.25;2.67;;;;;;;18.28;100.00;100732.94;5009471;28;20133;-71
2023/03/18 10:32:05;;;;;;;6.45;2.90;;;;;;;18.30;100.00;100722.09;5005217;28;20048;-71
2023/03/18 10:34:39;;;;;;;7.43;2.78;;;;;;;18.58;100.00;100725.97;5010287;28;20045;-70
2023/03/18 10:37:13;;;;;;;2.65;1.48;;;;;;;18.53;100.00;100726.56;5008683;28;20056;-70
2023/03/18 10:39:41;;;;;;;7.18;3.17;;;;;;;18.67;100.00;100717.69;5008176;28;20062;-71
2023/03/18 10:42:21;;;;;;;3.90;2.28;;;;;;;18.74;100.00;100718.22;5007534;28;20806;-68
2023/03/18 10:44:50;;;;;;;5.85;2.90;;;;;;;18.96;100.00;100723.84;5006857;28;20056;-71
2023/03/18 10:47:33;;;;;;;5.60;1.58;;;;;;;18.80;100.00;100718.44;5007737;28;20085;-71
2023/03/18 10:50:20;;;;;;;9.48;2.70;;;;;;;18.97;100.00;100706.56;5009347;28;20141;-71
2023/03/18 10:52:55;;;;;;;6.90;2.60;;;;;;;19.15;100.00;100705.94;5012299;28;20050;-73
2023/03/18 10:55:28;;;;;;;3.55;2.50;;;;;;;19.20;100.00;100714.56;5008730;28;20497;-71
2023/03/18 10:57:54;;;;;;;7.15;3.10;;;;;;;19.07;100.00;100713.81;5011021;28;20407;-73
2023/03/18 11:00:31;;;;;;;6.45;3.10;;;;;;;19.38;100.00;100713.94;5011091;28;20084;-72
2023/03/18 11:02:59;;;;;;;5.53;2.83;;;;;;;19.62;100.00;100715.03;5010197;28;20046;-72
2023/03/18 11:05:27;;;;;;;8.13;3.38;;;;;;;19.83;100.00;100711.41;5008575;28;20042;-72
2023/03/18 11:08:04;;;;;;;8.02;3.28;;;;;;;20.03;100.00;100717.44;5004215;28;20486;-72
2023/03/18 11:10:43;;;;;;;4.55;2.88;;;;;;;20.04;100.00;100702.13;5005540;28;20050;-75
2023/03/18 11:13:16;;;;;;;6.30;3.58;;;;;;;20.20;100.00;100713.16;5004897;28;20060;-72
2023/03/18 11:15:53;;;;;;;8.23;3.13;;;;;;;20.56;100.00;100710.47;5009314;28;20046;-71
2023/03/18 11:18:23;;;;;;;5.43;2.22;;;;;;;20.80;100.00;100711.44;5008917;28;20124;-71
2023/03/18 11:20:59;;;;;;;4.22;2.22;;;;;;;20.76;100.00;100707.19;5008547;28;20048;-71